Time;durP1;ratioP1;P1;durP2;ratioP2;P2;SDS_P1;SDS_P2;PMS_P1;PMS_P2;Temp;Humidity;BMP_temperature;BMP_pressure;BME280_temperature;BME280_humidity;BME280_pressure;Samples;Min_cycle;Max_cycle;Signal;HPM_P1;HPM_P2
2022/06/13 00:01:21;;;;;;;3.30;2.08;;;22.40;55.20;;;;;;4945051;28;88435;-77
2022/06/13 00:03:48;;;;;;;2.63;1.50;;;22.40;55.30;;;;;;4937913;28;87592;-77
2022/06/13 00:06:13;;;;;;;2.97;1.48;;;22.40;55.30;;;;;;4941547;28;87878;-77
2022/06/13 00:08:39;;;;;;;3.65;1.88;;;22.40;55.30;;;;;;4939415;28;88146;-78
2022/06/13 00:11:09;;;;;;;2.42;1.63;;;22.40;55.40;;;;;;4942355;28;88669;-79
2022/06/13 00:13:39;;;;;;;2.20;1.80;;;22.40;55.50;;;;;;4941782;28;89660;-79
2022/06/13 00:16:05;;;;;;;2.67;1.80;;;22.30;55.60;;;;;;4941643;28;88028;-78
2022/06/13 00:18:30;;;;;;;4.32;1.90;;;22.40;55.50;;;;;;4953574;28;89080;-77
2022/06/13 00:20:56;;;;;;;2.47;1.70;;;22.30;55.60;;;;;;4939931;28;87863;-78
2022/06/13 00:23:22;;;;;;;3.38;1.90;;;22.40;55.50;;;;;;4936751;28;88040;-78
2022/06/13 00:25:48;;;;;;;2.58;1.60;;;22.30;55.50;;;;;;4940274;28;87613;-77
2022/06/13 00:28:13;;;;;;;3.42;1.70;;;22.30;55.50;;;;;;4938418;28;89001;-77
2022/06/13 00:30:39;;;;;;;3.45;2.00;;;22.40;55.70;;;;;;4935108;28;87915;-78
2022/06/13 00:33:04;;;;;;;1.70;1.38;;;22.30;55.60;;;;;;4932780;28;88058;-77
2022/06/13 00:35:30;;;;;;;2.28;1.60;;;22.30;55.50;;;;;;4942040;28;89627;-77
2022/06/13 00:37:56;;;;;;;2.55;1.55;;;22.30;55.50;;;;;;4940280;28;89263;-77
2022/06/13 00:40:22;;;;;;;2.63;1.58;;;22.40;55.50;;;;;;4939179;28;87225;-77
2022/06/13 00:42:48;;;;;;;2.10;1.60;;;22.30;55.50;;;;;;4940483;28;87740;-78
2022/06/13 00:45:16;;;;;;;3.08;1.88;;;22.30;55.70;;;;;;4937879;28;88135;-78
2022/06/13 00:47:46;;;;;;;2.38;1.63;;;22.30;55.70;;;;;;4937319;28;90354;-76
2022/06/13 00:50:40;;;;;;;2.83;1.60;;;22.30;55.80;;;;;;4949020;28;87187;-77
2022/06/13 00:53:18;;;;;;;2.78;1.63;;;22.30;55.90;;;;;;4937893;28;87306;-77
2022/06/13 00:55:48;;;;;;;3.05;1.90;;;22.30;55.80;;;;;;4950665;28;90540;-78
2022/06/13 00:58:14;;;;;;;2.85;1.90;;;22.30;55.70;;;;;;4956691;28;91089;-77
2022/06/13 01:00:42;;;;;;;2.53;1.58;;;22.30;55.80;;;;;;4949076;28;88182;-79
2022/06/13 01:03:08;;;;;;;2.63;1.60;;;22.30;55.80;;;;;;4956507;28;89504;-77
2022/06/13 01:05:40;;;;;;;3.00;1.80;;;22.30;55.80;;;;;;4938265;28;88586;-77
2022/06/13 01:08:08;;;;;;;1.95;1.48;;;22.30;56.00;;;;;;4937912;28;87792;-78
2022/06/13 01:13:22;;;;;;;2.25;1.50;;;22.30;56.00;;;;;;4938485;28;87035;-77
2022/06/13 01:16:15;;;;;;;2.83;1.83;;;22.30;56.00;;;;;;4939573;28;88371;-77
2022/06/13 01:19:28;;;;;;;2.28;1.52;;;22.30;56.10;;;;;;4940271;28;87563;-77
2022/06/13 01:21:57;;;;;;;2.80;1.75;;;22.30;56.10;;;;;;4937458;28;87481;-78
2022/06/13 01:24:47;;;;;;;2.83;1.77;;;22.30;56.10;;;;;;4930821;28;89960;-77
2022/06/13 01:27:40;;;;;;;1.30;1.20;;;22.30;56.10;;;;;;4940442;28;91803;-77
2022/06/13 01:30:21;;;;;;;2.55;1.60;;;22.20;56.10;;;;;;4936929;28;88655;-77
2022/06/13 01:33:13;;;;;;;2.95;1.60;;;22.30;56.20;;;;;;4932289;28;86974;-77
2022/06/13 01:35:46;;;;;;;1.92;1.60;;;22.20;56.30;;;;;;4928636;28;89011;-77
2022/06/13 01:38:29;;;;;;;3.83;1.70;;;22.20;56.30;;;;;;4930007;28;90244;-77
2022/06/13 01:41:14;;;;;;;2.65;1.77;;;22.20;56.20;;;;;;4939078;28;88798;-77
2022/06/13 01:43:45;;;;;;;2.20;1.80;;;22.20;56.20;;;;;;4939484;28;87374;-77
2022/06/13 01:46:43;;;;;;;2.50;1.77;;;22.20;56.20;;;;;;4943534;28;86915;-78
2022/06/13 01:49:26;;;;;;;2.13;1.85;;;22.20;56.30;;;;;;4940107;28;88123;-78
2022/06/13 01:52:11;;;;;;;2.28;1.60;;;22.20;56.20;;;;;;4935064;28;89623;-77
2022/06/13 01:54:52;;;;;;;2.58;1.38;;;22.20;56.20;;;;;;4936315;28;88403;-78
2022/06/13 01:57:42;;;;;;;2.45;1.45;;;22.20;56.40;;;;;;4936632;28;87857;-77
2022/06/13 02:00:16;;;;;;;2.35;1.60;;;22.20;56.40;;;;;;4933823;28;88943;-78
2022/06/13 02:02:44;;;;;;;1.65;1.38;;;22.20;56.30;;;;;;4938125;28;87466;-78
2022/06/13 02:05:36;;;;;;;2.37;1.63;;;22.20;56.30;;;;;;4940464;28;87536;-78
2022/06/13 02:08:17;;;;;;;2.22;1.67;;;22.20;56.60;;;;;;4937961;28;87397;-76
2022/06/13 02:11:01;;;;;;;1.77;1.40;;;22.20;56.50;;;;;;4938481;28;88095;-77
2022/06/13 02:13:33;;;;;;;2.20;1.67;;;22.20;56.50;;;;;;4936164;28;91104;-78
2022/06/13 02:16:15;;;;;;;1.90;1.50;;;22.20;56.50;;;;;;4938647;28;87506;-77
2022/06/13 02:18:52;;;;;;;2.05;1.60;;;22.20;56.50;;;;;;4940231;28;87736;-78
2022/06/13 02:21:23;;;;;;;2.20;1.50;;;22.20;56.60;;;;;;4937929;28;89384;-76
2022/06/13 02:23:55;;;;;;;1.77;1.27;;;22.20;56.60;;;;;;4939250;28;89055;-77
2022/06/13 02:26:30;;;;;;;2.65;1.50;;;22.20;56.70;;;;;;4932202;28;87825;-77
2022/06/13 02:29:02;;;;;;;3.03;1.40;;;22.20;56.60;;;;;;4937021;28;87256;-77
2022/06/13 02:31:44;;;;;;;2.03;1.30;;;22.20;56.60;;;;;;4937055;28;87663;-77
2022/06/13 02:34:18;;;;;;;2.17;1.48;;;22.20;56.90;;;;;;4943108;28;87606;-77
2022/06/13 02:36:59;;;;;;;1.70;1.48;;;22.20;56.80;;;;;;4954345;28;87586;-77
2022/06/13 02:39:35;;;;;;;2.15;1.45;;;22.20;56.80;;;;;;4941929;28;87326;-77
2022/06/13 02:42:13;;;;;;;2.25;1.33;;;22.20;56.70;;;;;;4937151;28;88181;-77
2022/06/13 02:44:45;;;;;;;2.35;1.80;;;22.20;56.90;;;;;;4937076;28;87999;-77
2022/06/13 02:47:22;;;;;;;1.92;1.42;;;22.20;56.80;;;;;;4951592;28;88793;-77
2022/06/13 02:50:02;;;;;;;1.90;1.50;;;22.10;56.80;;;;;;4937106;28;87677;-79
2022/06/13 02:52:54;;;;;;;2.10;1.73;;;22.20;56.80;;;;;;4936789;28;89917;-77
2022/06/13 02:55:20;;;;;;;2.45;1.40;;;22.20;56.80;;;;;;4930863;28;87648;-77
2022/06/13 02:58:09;;;;;;;1.65;1.40;;;22.10;56.90;;;;;;4935154;28;88282;-77
2022/06/13 03:01:04;;;;;;;1.70;1.40;;;22.10;56.80;;;;;;4939638;28;87942;-77
2022/06/13 03:03:58;;;;;;;1.63;1.50;;;22.10;56.90;;;;;;4927213;28;88141;-77
2022/06/13 03:06:31;;;;;;;1.35;1.10;;;22.10;56.80;;;;;;4937776;28;87228;-77
2022/06/13 03:09:00;;;;;;;1.80;1.50;;;22.10;56.70;;;;;;4940775;28;87192;-77
2022/06/13 03:11:42;;;;;;;1.52;1.42;;;22.10;56.90;;;;;;4936229;28;87321;-77
2022/06/13 03:14:14;;;;;;;2.33;1.40;;;22.10;56.90;;;;;;4947614;28;91406;-77
2022/06/13 03:16:49;;;;;;;1.65;1.30;;;22.10;56.90;;;;;;4933074;28;92101;-77
2022/06/13 03:19:20;;;;;;;1.90;1.38;;;22.10;56.90;;;;;;4938811;28;87176;-77
2022/06/13 03:21:51;;;;;;;1.67;1.50;;;22.10;56.90;;;;;;4942929;28;87696;-78
2022/06/13 03:24:23;;;;;;;1.83;1.42;;;22.10;56.90;;;;;;4939383;28;87888;-77
2022/06/13 03:27:01;;;;;;;1.85;1.42;;;22.10;56.90;;;;;;4938582;28;88058;-78
2022/06/13 03:29:32;;;;;;;5.47;1.70;;;22.10;56.90;;;;;;4948668;28;87783;-77
2022/06/13 03:32:07;;;;;;;1.60;1.30;;;22.10;56.90;;;;;;4936988;28;87328;-77
2022/06/13 03:34:37;;;;;;;2.58;1.60;;;22.10;56.90;;;;;;4939447;28;88369;-76
2022/06/13 03:37:12;;;;;;;2.25;1.42;;;22.10;56.90;;;;;;4956960;28;90069;-79
2022/06/13 03:39:44;;;;;;;2.08;1.30;;;22.10;56.90;;;;;;4939550;28;89021;-79
2022/06/13 03:42:22;;;;;;;1.98;1.55;;;22.10;56.90;;;;;;4955376;28;87780;-78
2022/06/13 03:45:18;;;;;;;1.90;1.70;;;22.10;56.90;;;;;;4944389;28;89649;-77
2022/06/13 03:48:09;;;;;;;2.75;1.30;;;22.10;57.00;;;;;;4934483;28;88158;-78
2022/06/13 03:50:53;;;;;;;1.80;1.58;;;22.10;57.10;;;;;;4938688;28;87733;-78
2022/06/13 03:53:25;;;;;;;1.60;1.45;;;22.10;57.00;;;;;;4938723;28;87528;-77
2022/06/13 03:55:57;;;;;;;1.63;1.30;;;22.10;56.90;;;;;;4938096;28;91127;-78
2022/06/13 03:58:58;;;;;;;1.45;1.25;;;22.10;57.00;;;;;;4951399;28;90613;-77
2022/06/13 04:01:31;;;;;;;1.63;1.40;;;22.10;57.00;;;;;;4918948;28;87969;-78
2022/06/13 04:04:00;;;;;;;2.63;1.50;;;22.10;57.00;;;;;;4941107;28;89819;-77
2022/06/13 04:06:34;;;;;;;1.25;1.15;;;22.10;57.00;;;;;;4941629;28;88635;-77
2022/06/13 04:09:03;;;;;;;1.73;1.48;;;22.10;57.00;;;;;;4938145;28;88986;-77
2022/06/13 04:11:46;;;;;;;2.17;1.30;;;22.10;56.90;;;;;;4937788;28;87980;-78
2022/06/13 04:14:30;;;;;;;2.15;1.60;;;22.10;57.10;;;;;;4959973;28;89317;-78
2022/06/13 04:17:08;;;;;;;2.13;1.60;;;22.10;57.00;;;;;;4940546;28;88474;-78
2022/06/13 04:19:58;;;;;;;1.92;1.50;;;22.10;57.20;;;;;;4943894;28;87790;-77
2022/06/13 04:22:51;;;;;;;1.33;1.20;;;22.10;57.20;;;;;;4939010;28;86999;-79
2022/06/13 04:25:35;;;;;;;3.13;1.75;;;22.10;57.20;;;;;;4943532;28;87080;-78
2022/06/13 04:28:16;;;;;;;1.95;1.20;;;22.10;57.10;;;;;;4944003;28;88069;-77
2022/06/13 04:30:43;;;;;;;1.95;1.60;;;22.10;57.20;;;;;;4944059;28;87869;-78
2022/06/13 04:33:20;;;;;;;1.60;1.38;;;22.10;57.20;;;;;;4932594;28;88574;-78
2022/06/13 04:35:47;;;;;;;1.60;1.38;;;22.10;57.30;;;;;;4943955;28;87613;-77
2022/06/13 04:38:15;;;;;;;2.15;1.70;;;22.10;57.20;;;;;;4938734;28;88058;-78
2022/06/13 04:40:47;;;;;;;1.80;1.40;;;22.10;57.10;;;;;;4939881;28;87718;-77
2022/06/13 04:43:15;;;;;;;1.65;1.10;;;22.10;57.30;;;;;;4947917;28;87021;-77
2022/06/13 04:46:00;;;;;;;2.92;1.52;;;22.10;57.00;;;;;;4942288;28;87656;-77
2022/06/13 04:48:27;;;;;;;2.22;1.45;;;22.10;57.50;;;;;;4949418;28;91197;-77
2022/06/13 04:50:58;;;;;;;1.67;1.20;;;22.10;57.40;;;;;;4956045;28;89489;-77
2022/06/13 04:53:38;;;;;;;2.05;1.67;;;22.10;57.50;;;;;;4937612;28;88029;-77
2022/06/13 04:56:04;;;;;;;;;;;22.10;57.30;;;;;;4939693;28;89898;-77
2022/06/13 04:58:38;;;;;;;2.05;1.50;;;22.10;58.00;;;;;;4937503;28;89120;-78
2022/06/13 05:01:09;;;;;;;1.58;1.25;;;22.10;57.30;;;;;;4940998;28;87904;-77
2022/06/13 05:03:37;;;;;;;1.80;1.30;;;22.10;57.30;;;;;;4940777;28;87166;-78
2022/06/13 05:06:11;;;;;;;1.30;1.20;;;22.10;57.20;;;;;;4944500;28;87776;-77
2022/06/13 05:08:40;;;;;;;1.70;1.40;;;22.10;57.20;;;;;;4939118;28;87963;-77
2022/06/13 05:11:22;;;;;;;2.05;1.60;;;22.10;57.50;;;;;;4936879;28;88228;-78
2022/06/13 05:13:51;;;;;;;1.23;1.13;;;22.20;57.30;;;;;;4935881;28;87398;-77
2022/06/13 05:16:25;;;;;;;1.38;1.27;;;22.20;57.50;;;;;;4935796;28;86966;-77
2022/06/13 05:19:22;;;;;;;2.08;1.40;;;22.20;57.60;;;;;;4940219;28;87556;-77
2022/06/13 05:21:55;;;;;;;1.60;1.40;;;22.20;57.40;;;;;;4940094;28;89525;-77
2022/06/13 05:25:05;;;;;;;1.63;1.35;;;22.20;57.30;;;;;;4940688;28;88684;-78
2022/06/13 05:27:30;;;;;;;1.55;1.38;;;22.10;57.50;;;;;;4940712;28;88015;-78
2022/06/13 05:29:56;;;;;;;1.70;1.38;;;22.10;57.60;;;;;;4939264;28;88522;-77
2022/06/13 05:32:23;;;;;;;1.38;1.27;;;22.10;57.50;;;;;;4932979;28;87892;-77
2022/06/13 05:34:50;;;;;;;1.60;1.50;;;22.10;57.70;;;;;;4939645;28;87490;-77
2022/06/13 05:37:16;;;;;;;1.60;1.38;;;22.10;57.60;;;;;;4942037;28;87782;-78
2022/06/13 05:39:43;;;;;;;1.65;1.30;;;22.10;57.50;;;;;;4947704;28;91429;-77
2022/06/13 05:42:13;;;;;;;2.00;1.50;;;22.10;57.50;;;;;;4939670;28;87261;-77
2022/06/13 05:44:40;;;;;;;2.45;1.23;;;22.20;57.50;;;;;;4942984;28;87738;-79
2022/06/13 05:47:13;;;;;;;1.50;1.40;;;22.20;57.50;;;;;;4938166;28;87891;-77
2022/06/13 05:49:39;;;;;;;1.38;1.20;;;22.20;57.50;;;;;;4984702;22;90901;-87
2022/06/13 05:52:51;;;;;;;1.35;1.25;;;22.20;57.50;;;;;;4958010;28;88145;-84
2022/06/13 05:55:19;;;;;;;3.15;1.50;;;22.20;57.60;;;;;;4968319;28;87569;-87
2022/06/13 05:57:44;;;;;;;1.30;1.20;;;22.20;57.50;;;;;;4952711;28;87967;-86
2022/06/13 06:00:33;;;;;;;1.65;1.38;;;22.20;57.70;;;;;;4952833;28;87943;-85
2022/06/13 06:02:59;;;;;;;1.60;1.50;;;22.20;57.50;;;;;;4954100;28;87577;-85
2022/06/13 06:05:31;;;;;;;6.18;1.40;;;22.20;57.60;;;;;;4953409;28;88381;-82
2022/06/13 06:08:18;;;;;;;2.10;1.27;;;22.20;57.60;;;;;;4954610;28;87240;-88
2022/06/13 06:10:43;;;;;;;1.58;1.27;;;22.20;57.60;;;;;;4952987;28;88550;-85
2022/06/13 06:13:11;;;;;;;2.75;1.45;;;22.20;57.60;;;;;;4953519;28;87923;-88
2022/06/13 06:15:41;;;;;;;2.50;1.92;;;22.20;58.40;;;;;;4956590;28;88943;-88
2022/06/13 06:18:07;;;;;;;3.38;1.70;;;22.20;57.90;;;;;;4956895;28;91172;-87
2022/06/13 06:20:39;;;;;;;2.10;1.67;;;22.20;58.20;;;;;;4953890;28;87874;-87
2022/06/13 06:23:05;;;;;;;3.53;1.95;;;22.20;58.60;;;;;;4953042;28;87221;-87
2022/06/13 06:25:32;;;;;;;7.30;2.95;;;22.20;58.60;;;;;;4954508;28;87769;-86
2022/06/13 06:27:58;;;;;;;18.20;4.15;;;22.20;57.50;;;;;;4970527;28;88130;-87
2022/06/13 06:30:27;;;;;;;20.38;4.68;;;22.20;56.90;;;;;;4956020;28;87870;-86
2022/06/13 06:32:56;;;;;;;11.13;4.30;;;22.10;56.90;;;;;;4972467;28;88075;-89
2022/06/13 06:35:24;;;;;;;14.20;4.50;;;22.10;56.50;;;;;;4958037;28;87977;-91
2022/06/13 06:37:52;;;;;;;11.73;4.07;;;22.10;56.40;;;;;;4971161;28;90111;-92
2022/06/13 06:40:20;;;;;;;14.00;3.78;;;22.10;56.40;;;;;;4954076;28;88151;-91
2022/06/13 06:42:45;;;;;;;13.43;3.90;;;22.10;56.70;;;;;;4955453;28;88881;-86
2022/06/13 06:45:12;;;;;;;10.65;3.33;;;22.10;57.20;;;;;;4955356;28;87194;-87
2022/06/13 06:47:41;;;;;;;15.07;4.65;;;22.10;56.90;;;;;;4959021;28;87011;-89
2022/06/13 06:50:13;;;;;;;12.50;3.95;;;22.10;56.90;;;;;;4952491;28;88063;-89
2022/06/13 06:52:40;;;;;;;13.77;4.13;;;22.10;57.30;;;;;;4956539;28;87584;-83
2022/06/13 07:00:38;;;;;;;15.35;5.00;;;22.10;57.20;;;;;;4896686;28;89397;-84
2022/06/13 07:03:04;;;;;;;14.23;4.32;;;22.10;56.90;;;;;;4936692;28;90436;-86
2022/06/13 07:05:30;;;;;;;14.65;4.55;;;22.10;57.40;;;;;;4952449;28;88274;-86
2022/06/13 07:07:58;;;;;;;13.63;4.32;;;22.10;57.20;;;;;;4956241;28;87846;-86
2022/06/13 07:10:26;;;;;;;16.13;4.90;;;22.10;57.50;;;;;;4956265;28;87980;-85
2022/06/13 07:15:20;;;;;;;17.60;5.05;;;22.10;57.40;;;;;;5051956;22;87290;-74
2022/06/13 07:17:46;;;;;;;17.05;4.82;;;22.10;57.00;;;;;;4967035;28;88862;-73
2022/06/13 07:20:13;;;;;;;19.55;4.30;;;22.10;56.90;;;;;;4952069;28;88229;-73
2022/06/13 07:22:53;;;;;;;17.33;4.68;;;22.10;57.00;;;;;;4966488;28;89708;-72
2022/06/13 07:25:23;;;;;;;18.88;4.13;;;22.10;56.80;;;;;;4952131;28;88054;-73
2022/06/13 07:27:49;;;;;;;11.90;4.53;;;22.10;56.60;;;;;;4965778;28;90789;-73
2022/06/13 07:30:16;;;;;;;19.33;4.10;;;22.10;56.70;;;;;;4950308;28;89466;-73
2022/06/13 07:32:43;;;;;;;11.25;3.97;;;22.10;56.90;;;;;;4952324;28;88989;-73
2022/06/13 07:35:10;;;;;;;25.05;4.55;;;22.10;56.20;;;;;;4952369;28;87929;-73
2022/06/13 07:40:21;;;;;;;13.68;3.97;;;22.10;56.90;;;;;;4951289;28;87748;-73
2022/06/13 07:42:53;;;;;;;27.95;6.45;;;22.10;56.90;;;;;;4951612;28;87995;-74
2022/06/13 07:45:22;;;;;;;27.85;5.65;;;22.10;56.70;;;;;;4950107;28;87863;-72
2022/06/13 07:47:49;;;;;;;14.75;4.25;;;22.10;56.70;;;;;;4966349;28;90595;-72
2022/06/13 07:50:17;;;;;;;18.73;4.82;;;22.10;56.90;;;;;;4952145;28;87758;-71
2022/06/13 07:52:43;;;;;;;17.40;4.75;;;22.10;57.10;;;;;;4951205;28;88241;-72
2022/06/13 07:55:09;;;;;;;20.10;5.32;;;22.10;57.70;;;;;;4951719;28;88624;-72
2022/06/13 07:57:36;;;;;;;21.40;5.55;;;22.10;56.80;;;;;;4950431;28;87715;-72
2022/06/13 08:00:04;;;;;;;18.15;6.43;;;22.10;56.90;;;;;;4951714;28;88767;-71
2022/06/13 08:02:33;;;;;;;18.98;6.40;;;22.10;56.80;;;;;;4950591;28;91344;-72
2022/06/13 08:05:05;;;;;;;22.30;5.57;;;22.20;56.80;;;;;;4952548;28;87546;-72
2022/06/13 08:07:34;;;;;;;24.50;6.93;;;22.20;56.70;;;;;;4951934;28;87297;-71
2022/06/13 08:09:59;;;;;;;20.00;6.80;;;22.20;56.70;;;;;;4952305;28;88115;-73
2022/06/13 08:12:25;;;;;;;24.38;6.40;;;22.20;56.60;;;;;;4951776;28;87393;-73
2022/06/13 08:14:51;;;;;;;20.77;6.78;;;22.20;56.60;;;;;;4952486;28;87312;-73
2022/06/13 08:17:19;;;;;;;20.45;5.93;;;22.20;56.50;;;;;;4951892;28;87653;-71
2022/06/13 08:19:46;;;;;;;17.70;5.90;;;22.20;56.50;;;;;;4949043;28;91118;-73
2022/06/13 08:22:14;;;;;;;16.92;5.88;;;22.20;57.30;;;;;;4951829;28;88663;-72
2022/06/13 08:24:41;;;;;;;21.77;6.15;;;22.20;56.60;;;;;;4952121;28;88026;-73
2022/06/13 08:27:07;;;;;;;20.05;5.45;;;22.20;56.70;;;;;;4949626;28;89038;-72
2022/06/13 08:29:33;;;;;;;20.52;6.00;;;22.20;56.40;;;;;;4951630;28;87457;-72
2022/06/13 08:32:00;;;;;;;20.88;5.72;;;22.20;56.40;;;;;;4952199;28;88458;-73
2022/06/13 08:34:26;;;;;;;22.05;5.85;;;22.20;56.40;;;;;;4950393;28;87690;-73
2022/06/13 08:36:53;;;;;;;17.98;6.57;;;22.20;56.60;;;;;;4951717;28;87216;-71
2022/06/13 08:39:19;;;;;;;15.60;5.40;;;22.20;56.30;;;;;;4951139;28;88180;-73
2022/06/13 08:42:24;;;;;;;19.40;6.28;;;22.20;56.40;;;;;;4950441;28;87913;-73
2022/06/13 08:45:28;;;;;;;18.55;6.00;;;22.20;56.40;;;;;;4951118;28;89011;-72
2022/06/13 08:48:02;;;;;;;17.65;5.75;;;22.20;56.20;;;;;;4965984;28;89646;-72
2022/06/13 08:50:37;;;;;;;18.60;5.32;;;22.20;56.20;;;;;;4949514;28;90388;-72
2022/06/13 08:53:23;;;;;;;15.02;5.47;;;22.20;56.40;;;;;;4950971;28;87503;-72
2022/06/13 08:55:54;;;;;;;20.25;5.03;;;22.20;56.10;;;;;;4951780;28;87094;-72
2022/06/13 08:58:32;;;;;;;16.20;5.82;;;22.20;55.90;;;;;;4951756;28;88104;-72
2022/06/13 09:01:06;;;;;;;18.63;5.87;;;22.20;55.80;;;;;;4950564;28;88566;-72
2022/06/13 09:03:39;;;;;;;17.98;5.63;;;22.20;56.00;;;;;;4950188;28;89739;-72
2022/06/13 09:06:18;;;;;;;16.90;5.30;;;22.20;55.80;;;;;;4950362;28;87986;-72
2022/06/13 09:08:59;;;;;;;12.40;5.22;;;22.20;55.80;;;;;;4950580;28;87564;-72
2022/06/13 09:11:58;;;;;;;16.60;5.00;;;22.20;55.80;;;;;;4949795;28;89056;-72
2022/06/13 09:14:34;;;;;;;13.23;4.88;;;22.20;55.60;;;;;;4950775;28;88000;-72
2022/06/13 09:17:12;;;;;;;15.98;5.05;;;22.20;55.70;;;;;;4951622;28;86996;-73
2022/06/13 09:19:54;;;;;;;15.18;5.20;;;22.20;55.90;;;;;;4951010;28;87415;-73
2022/06/13 09:22:33;;;;;;;18.17;5.13;;;22.20;55.90;;;;;;4949794;28;89501;-73
2022/06/13 09:25:08;;;;;;;13.20;4.93;;;22.20;55.70;;;;;;4949882;28;87270;-73
2022/06/13 09:27:37;;;;;;;14.23;4.20;;;22.10;55.70;;;;;;4950121;28;87635;-72
2022/06/13 09:30:12;;;;;;;11.77;4.70;;;22.20;55.80;;;;;;4951320;28;87389;-72
2022/06/13 09:32:38;;;;;;;13.75;4.53;;;22.10;55.80;;;;;;4951821;28;88840;-72
2022/06/13 09:35:09;;;;;;;15.27;4.78;;;22.20;55.50;;;;;;4949220;28;89910;-72
2022/06/13 09:37:43;;;;;;;11.98;4.10;;;22.10;55.40;;;;;;4949415;28;87895;-72
2022/06/13 09:40:13;;;;;;;14.40;4.80;;;22.20;55.60;;;;;;4948540;28;88986;-72
2022/06/13 09:42:57;;;;;;;11.77;4.72;;;22.10;55.30;;;;;;4951021;28;87669;-72
2022/06/13 09:45:26;;;;;;;13.15;4.32;;;22.10;55.60;;;;;;4948938;28;89544;-72
2022/06/13 09:48:25;;;;;;;15.43;4.83;;;22.10;55.90;;;;;;4950762;28;87586;-72
2022/06/13 09:51:09;;;;;;;14.18;4.65;;;22.20;55.70;;;;;;4965627;28;89340;-72
2022/06/13 09:54:06;;;;;;;14.70;5.22;;;22.20;55.50;;;;;;4950740;28;87586;-72
2022/06/13 09:56:42;;;;;;;14.88;5.57;;;22.10;55.80;;;;;;4950243;28;87866;-72
2022/06/13 09:59:42;;;;;;;12.90;4.25;;;22.10;55.60;;;;;;4950836;28;87142;-72
2022/06/13 10:02:29;;;;;;;10.63;4.20;;;22.10;55.50;;;;;;4949319;28;87820;-72
2022/06/13 10:05:14;;;;;;;12.15;4.43;;;22.20;55.50;;;;;;4948843;28;89101;-72
2022/06/13 10:07:48;;;;;;;10.00;4.18;;;22.10;55.60;;;;;;4949829;28;89137;-72
2022/06/13 10:10:44;;;;;;;10.50;4.00;;;22.20;55.50;;;;;;4948765;28;87016;-71
2022/06/13 10:13:19;;;;;;;12.77;4.40;;;22.10;55.60;;;;;;4949827;28;87717;-72
2022/06/13 10:16:04;;;;;;;12.35;5.45;;;22.20;55.60;;;;;;4948010;28;91934;-73
2022/06/13 10:18:35;;;;;;;11.68;3.95;;;22.20;55.70;;;;;;4950105;28;87962;-72
2022/06/13 10:21:40;;;;;;;11.85;4.32;;;22.20;56.10;;;;;;4949855;28;88208;-73
2022/06/13 10:24:30;;;;;;;10.02;4.57;;;22.10;55.60;;;;;;4945652;28;87711;-72
2022/06/13 10:27:33;;;;;;;12.45;4.72;;;22.20;55.70;;;;;;4947668;28;88622;-71
2022/06/13 10:30:09;;;;;;;13.95;4.63;;;22.20;55.70;;;;;;4949033;28;87580;-72
2022/06/13 10:32:55;;;;;;;14.05;5.25;;;22.10;55.70;;;;;;4946839;28;88766;-73
2022/06/13 10:35:49;;;;;;;9.55;3.88;;;22.10;55.60;;;;;;4949778;28;87883;-72
2022/06/13 10:38:22;;;;;;;12.20;3.83;;;22.10;55.80;;;;;;4963244;28;88300;-72
2022/06/13 10:40:49;;;;;;;9.35;3.70;;;22.10;55.10;;;;;;4947716;28;88756;-72
2022/06/13 10:43:15;;;;;;;11.02;3.65;;;22.10;55.10;;;;;;4947827;28;88344;-72
2022/06/13 10:45:42;;;;;;;8.90;3.50;;;22.10;54.60;;;;;;4949661;28;86979;-73
2022/06/13 10:48:25;;;;;;;8.75;3.35;;;22.10;55.10;;;;;;4949324;28;88944;-73
2022/06/13 10:51:04;;;;;;;13.40;3.80;;;22.10;55.10;;;;;;4949399;28;89830;-73
2022/06/13 10:54:05;;;;;;;9.43;3.65;;;22.20;54.50;;;;;;4963663;28;88400;-72
2022/06/13 10:56:47;;;;;;;16.40;3.60;;;22.20;54.00;;;;;;4942495;28;87586;-71
2022/06/13 10:59:22;;;;;;;14.57;3.88;;;22.20;54.40;;;;;;4964030;28;92047;-74
2022/06/13 11:02:00;;;;;;;10.35;3.47;;;22.20;54.30;;;;;;4947877;28;90837;-73
2022/06/13 11:04:28;;;;;;;12.57;4.63;;;22.20;52.60;;;;;;4964466;28;87117;-74
2022/06/13 11:07:17;;;;;;;13.90;4.07;;;22.20;53.50;;;;;;4946838;28;87556;-74
2022/06/13 11:09:57;;;;;;;26.30;13.00;;;22.20;52.90;;;;;;4949927;28;87557;-74
2022/06/13 11:12:32;;;;;;;29.30;18.00;;;22.20;54.10;;;;;;4965403;28;91201;-74
2022/06/13 11:23:56;;;;;;;46.63;26.67;;;22.30;53.80;;;;;;4943574;28;87430;-73
2022/06/13 11:29:15;;;;;;;12.18;5.82;;;22.40;52.50;;;;;;4947712;28;87644;-75
2022/06/13 11:31:56;;;;;;;14.98;9.52;;;22.50;51.70;;;;;;4949321;28;87791;-74
2022/06/13 11:34:32;;;;;;;16.17;8.88;;;22.40;51.00;;;;;;4951106;28;88857;-72
2022/06/13 11:37:05;;;;;;;15.02;6.80;;;22.40;50.60;;;;;;4950443;28;87072;-74
2022/06/13 11:39:40;;;;;;;12.48;6.43;;;22.40;50.40;;;;;;4965579;28;90130;-73
2022/06/13 11:42:31;;;;;;;17.38;10.93;;;22.30;50.30;;;;;;4933374;28;90762;-74
2022/06/13 11:45:19;;;;;;;21.48;11.45;;;22.30;50.50;;;;;;4939460;28;88835;-73
2022/06/13 11:47:49;;;;;;;24.98;10.18;;;22.30;50.90;;;;;;4950650;28;87554;-74
2022/06/13 11:50:27;;;;;;;36.67;22.23;;;22.30;50.80;;;;;;4951536;28;86930;-72
2022/06/13 11:55:59;;;;;;;16.42;10.10;;;22.30;51.80;;;;;;4946943;28;87147;-72
2022/06/13 11:58:27;;;;;;;14.88;8.13;;;22.30;50.90;;;;;;4963714;28;88012;-65
2022/06/13 12:01:01;;;;;;;17.23;8.63;;;22.30;51.40;;;;;;4949452;28;89975;-64
2022/06/13 12:03:28;;;;;;;17.13;9.95;;;22.20;51.80;;;;;;4951353;28;87860;-64
2022/06/13 12:05:58;;;;;;;19.10;11.07;;;22.20;51.60;;;;;;4965902;28;91345;-64
2022/06/13 12:08:33;;;;;;;22.25;12.82;;;22.20;51.90;;;;;;4949476;28;87809;-64
2022/06/13 12:11:01;;;;;;;63.38;37.97;;;22.20;52.10;;;;;;4946968;28;86812;-64
2022/06/13 12:13:32;;;;;;;21.45;12.40;;;22.20;52.70;;;;;;4949761;28;89745;-63
2022/06/13 12:16:18;;;;;;;30.83;18.38;;;22.20;51.30;;;;;;4943733;28;87411;-64
2022/06/13 12:19:12;;;;;;;60.75;40.45;;;22.20;52.20;;;;;;4951139;28;88541;-64
2022/06/13 12:22:02;;;;;;;26.05;17.23;;;22.20;52.90;;;;;;4950442;28;87891;-63
2022/06/13 12:24:36;;;;;;;47.38;30.48;;;22.20;52.80;;;;;;4950321;28;88173;-63
2022/06/13 12:27:14;;;;;;;29.58;19.27;;;22.20;52.80;;;;;;4948404;28;87435;-64
2022/06/13 12:29:51;;;;;;;28.75;18.52;;;22.20;52.80;;;;;;4950139;28;87193;-64
2022/06/13 12:32:46;;;;;;;48.65;31.98;;;22.20;52.80;;;;;;4950685;28;87858;-64
2022/06/13 12:35:31;;;;;;;44.47;28.77;;;22.20;53.30;;;;;;4950965;28;87984;-64
2022/06/13 12:38:27;;;;;;;37.90;24.80;;;22.20;53.60;;;;;;4950689;28;87454;-64
2022/06/13 12:41:19;;;;;;;39.40;25.90;;;22.20;53.50;;;;;;4963993;28;87176;-63
2022/06/13 12:44:08;;;;;;;32.67;21.25;;;22.20;53.40;;;;;;4947693;28;89674;-63
2022/06/13 12:46:40;;;;;;;53.63;32.72;;;22.20;53.50;;;;;;4963522;28;90583;-64
2022/06/13 12:49:07;;;;;;;41.95;21.70;;;22.20;52.60;;;;;;4943283;28;90323;-64
2022/06/13 12:52:21;;;;;;;44.72;28.20;;;22.20;53.00;;;;;;4951238;28;87035;-63
2022/06/13 12:55:01;;;;;;;30.15;21.88;;;22.20;53.50;;;;;;4964926;28;87887;-64
2022/06/13 12:57:54;;;;;;;;;;;22.20;53.60;;;;;;4947877;28;87771;-64
2022/06/13 13:00:53;;;;;;;43.55;27.95;;;22.20;54.20;;;;;;4951830;28;88018;-64
2022/06/13 13:03:43;;;;;;;42.42;27.25;;;22.20;54.00;;;;;;4950303;28;87032;-64
2022/06/13 13:06:29;;;;;;;115.47;70.75;;;22.20;54.10;;;;;;4942994;28;87289;-64
2022/06/13 13:09:35;;;;;;;50.20;32.97;;;22.20;54.80;;;;;;4949780;28;88144;-63
2022/06/13 13:12:42;;;;;;;67.75;43.10;;;22.20;54.40;;;;;;4949701;28;87394;-64
2022/06/13 13:15:41;;;;;;;54.30;34.83;;;22.20;55.00;;;;;;4948660;28;89207;-64
2022/06/13 13:18:10;;;;;;;;;;;22.20;54.80;;;;;;4950705;28;87483;-64
2022/06/13 13:20:41;;;;;;;61.33;41.13;;;22.20;55.10;;;;;;4951843;28;87524;-64
2022/06/13 13:23:39;;;;;;;129.57;83.10;;;22.10;55.20;;;;;;4947602;28;88264;-64
2022/06/13 13:26:19;;;;;;;54.05;35.53;;;22.20;54.20;;;;;;4916981;28;87772;-65
2022/06/13 13:29:24;;;;;;;68.68;41.58;;;22.20;54.80;;;;;;4944273;28;88113;-65
2022/06/13 13:32:07;;;;;;;56.55;37.80;;;22.20;54.60;;;;;;4947778;28;88247;-65
2022/06/13 13:35:08;;;;;;;67.97;43.40;;;22.20;54.50;;;;;;4944883;28;90652;-64
2022/06/13 13:38:10;;;;;;;103.95;69.90;;;22.20;54.00;;;;;;4946487;28;88251;-64
2022/06/13 13:40:43;;;;;;;70.28;44.85;;;22.20;54.00;;;;;;4948716;28;87008;-65
2022/06/13 13:43:37;;;;;;;77.97;48.58;;;22.20;53.70;;;;;;4963731;28;92330;-65
2022/06/13 13:46:18;;;;;;;210.50;139.30;;;22.20;54.50;;;;;;4947536;28;89020;-64
2022/06/13 13:49:04;;;;;;;115.40;74.53;;;22.20;54.30;;;;;;4948204;28;87510;-66
2022/06/13 13:51:41;;;;;;;232.77;153.88;;;22.20;54.30;;;;;;4948205;28;89305;-63
2022/06/13 13:54:22;;;;;;;272.25;193.10;;;22.20;53.90;;;;;;4948553;28;88038;-63
2022/06/13 13:57:04;;;;;;;128.13;84.43;;;22.20;53.90;;;;;;4947043;28;87570;-63